Doha, Qatar

12:28 PM AST on February 28, 2017 (GMT +0300)
Doha | | Change Station

Elev 0 ft 25.33 °N, 51.52 °E | Updated 2 minutes ago

Clear
Clear
72.7 °F
Feels Like 77 °F
N
5.0
Wind Variable Wind from WSW
Gusts 25.5 mph

Today
High -- | Low -- °F
--% Chance of Precip.
Yesterday
High -- | Low -- °F
Precip. -- in
Pressure 30.12 in
Visibility -9999.0 miles
Clouds
Heat Index 77 °F
Dew Point 47 °F
Humidity 40%
Rainfall 0.00 in
Snow Depth Not available.
5:57 AM 5:35 PM
Waxing Crescent, 4% visible
METAR OTBD 280900Z 01009KT 330V030 CAVOK 23/04 Q1020 NOSIG
Pressure 30.12 in
Visibility -9999.0 miles
Clouds
Heat Index 77 °F
Dew Point 47 °F
Humidity 40%
Rainfall 0.00 in
Snow Depth Not available.
5:57 AM 5:35 PM
Waxing Crescent, 4% visible
METAR OTBD 280900Z 01009KT 330V030 CAVOK 23/04 Q1020 NOSIG

Get Your Daily Forecast Email!

Thanks for signing up!

Be on the lookout for a verification email in your inbox.

You'll start receiving the daily forecast at 8 AM.

×

10-Day Weather Forecast

No radar image for this location.
×

Almanac

Astronomy

Feb. 28, 2017 Rise Set
Actual Time
Civil Twilight
Nautical Twilight
Astronomical Twilight
Moon
Length of Visible Light
Length of Day
Tomorrow will be .
, % of the Moon is Illuminated

Today's Extremes

Country Highs Country Lows

Community

WunderPhotos

Upload Photos

1,962,540 photos uploaded!

WunderBlog® & News

Nearby

Air Quality

  Air Quality AQ Index Pollutant
Not available.

Snow Depth

Station Depth Elevation

Earthquake Activity

City Distance Mag. Time & Date
Minimum magnitude displayed is 2.5.

Coastal Water Temperatures

Place Temperature

Stations

Nearby Weather Stations

Station Location Temp. Windchill Dew Point Humidity Wind Precip. Elev Updated Type